sensor_id;sensor_type;location;lat;lon;timestamp;P1;durP1;ratioP1;P2;durP2;ratioP2
15693;SDS011;7947;48.834;9.132;2023-08-24T00:00:02;5.93;;;4.40;;
15693;SDS011;7947;48.834;9.132;2023-08-24T00:03:06;4.50;;;3.70;;
15693;SDS011;7947;48.834;9.132;2023-08-24T00:06:09;7.20;;;3.70;;
15693;SDS011;7947;48.834;9.132;2023-08-24T00:09:14;4.47;;;3.72;;
15693;SDS011;7947;48.834;9.132;2023-08-24T00:12:17;5.68;;;4.15;;
15693;SDS011;7947;48.834;9.132;2023-08-24T00:15:20;4.65;;;4.10;;
15693;SDS011;7947;48.834;9.132;2023-08-24T00:18:24;4.32;;;3.90;;
15693;SDS011;7947;48.834;9.132;2023-08-24T00:21:27;4.57;;;3.80;;
15693;SDS011;7947;48.834;9.132;2023-08-24T00:24:31;7.35;;;3.53;;
15693;SDS011;7947;48.834;9.132;2023-08-24T00:27:34;4.50;;;4.10;;
15693;SDS011;7947;48.834;9.132;2023-08-24T00:30:37;5.38;;;4.13;;
15693;SDS011;7947;48.834;9.132;2023-08-24T00:33:40;4.85;;;4.25;;
15693;SDS011;7947;48.834;9.132;2023-08-24T00:36:43;5.10;;;3.90;;
15693;SDS011;7947;48.834;9.132;2023-08-24T00:39:48;4.70;;;4.30;;
15693;SDS011;7947;48.834;9.132;2023-08-24T00:42:51;7.00;;;4.18;;
15693;SDS011;7947;48.834;9.132;2023-08-24T00:45:55;5.75;;;4.15;;
15693;SDS011;7947;48.834;9.132;2023-08-24T00:48:59;4.82;;;3.80;;
15693;SDS011;7947;48.834;9.132;2023-08-24T00:52:03;5.75;;;4.28;;
15693;SDS011;7947;48.834;9.132;2023-08-24T00:55:08;4.82;;;4.32;;
15693;SDS011;7947;48.834;9.132;2023-08-24T00:58:12;4.53;;;3.65;;
15693;SDS011;7947;48.834;9.132;2023-08-24T01:01:15;3.97;;;3.58;;
15693;SDS011;7947;48.834;9.132;2023-08-24T01:04:19;5.25;;;4.13;;
15693;SDS011;7947;48.834;9.132;2023-08-24T01:07:23;5.32;;;4.05;;
15693;SDS011;7947;48.834;9.132;2023-08-24T01:10:28;4.50;;;3.97;;
15693;SDS011;7947;48.834;9.132;2023-08-24T01:13:38;4.60;;;4.07;;
15693;SDS011;7947;48.834;9.132;2023-08-24T01:16:48;5.47;;;4.30;;
15693;SDS011;7947;48.834;9.132;2023-08-24T01:19:56;6.68;;;4.80;;
15693;SDS011;7947;48.834;9.132;2023-08-24T01:23:03;4.32;;;3.92;;
15693;SDS011;7947;48.834;9.132;2023-08-24T01:26:13;4.28;;;3.63;;
15693;SDS011;7947;48.834;9.132;2023-08-24T01:29:19;5.05;;;3.85;;
15693;SDS011;7947;48.834;9.132;2023-08-24T01:32:22;5.75;;;4.32;;
15693;SDS011;7947;48.834;9.132;2023-08-24T01:35:25;5.82;;;4.07;;
15693;SDS011;7947;48.834;9.132;2023-08-24T01:38:28;4.50;;;3.90;;
15693;SDS011;7947;48.834;9.132;2023-08-24T01:41:34;6.47;;;4.43;;
15693;SDS011;7947;48.834;9.132;2023-08-24T01:44:40;6.45;;;4.13;;
15693;SDS011;7947;48.834;9.132;2023-08-24T01:47:45;5.78;;;4.93;;
15693;SDS011;7947;48.834;9.132;2023-08-24T01:50:50;6.10;;;4.72;;
15693;SDS011;7947;48.834;9.132;2023-08-24T01:53:54;5.28;;;4.13;;
15693;SDS011;7947;48.834;9.132;2023-08-24T01:56:58;4.50;;;4.10;;
15693;SDS011;7947;48.834;9.132;2023-08-24T02:00:01;8.82;;;5.72;;
15693;SDS011;7947;48.834;9.132;2023-08-24T02:03:07;10.63;;;6.38;;
15693;SDS011;7947;48.834;9.132;2023-08-24T02:06:11;5.38;;;4.28;;
15693;SDS011;7947;48.834;9.132;2023-08-24T02:09:13;5.80;;;4.60;;
15693;SDS011;7947;48.834;9.132;2023-08-24T02:12:18;5.25;;;4.70;;
15693;SDS011;7947;48.834;9.132;2023-08-24T02:15:21;6.22;;;4.75;;
15693;SDS011;7947;48.834;9.132;2023-08-24T02:18:24;6.15;;;4.32;;
15693;SDS011;7947;48.834;9.132;2023-08-24T02:21:27;5.45;;;4.68;;
15693;SDS011;7947;48.834;9.132;2023-08-24T02:24:30;6.00;;;4.70;;
15693;SDS011;7947;48.834;9.132;2023-08-24T02:27:34;5.18;;;4.60;;
15693;SDS011;7947;48.834;9.132;2023-08-24T02:30:37;5.32;;;4.32;;
15693;SDS011;7947;48.834;9.132;2023-08-24T02:33:40;6.40;;;4.97;;
15693;SDS011;7947;48.834;9.132;2023-08-24T02:36:43;5.50;;;4.93;;
15693;SDS011;7947;48.834;9.132;2023-08-24T02:39:47;6.55;;;5.40;;
15693;SDS011;7947;48.834;9.132;2023-08-24T02:42:51;5.93;;;5.03;;
15693;SDS011;7947;48.834;9.132;2023-08-24T02:45:54;6.07;;;5.22;;
15693;SDS011;7947;48.834;9.132;2023-08-24T02:48:57;5.78;;;4.93;;
15693;SDS011;7947;48.834;9.132;2023-08-24T02:51:59;6.43;;;4.60;;
15693;SDS011;7947;48.834;9.132;2023-08-24T02:55:03;7.03;;;4.65;;
15693;SDS011;7947;48.834;9.132;2023-08-24T02:58:07;5.95;;;4.65;;
15693;SDS011;7947;48.834;9.132;2023-08-24T03:01:10;6.97;;;4.43;;
15693;SDS011;7947;48.834;9.132;2023-08-24T03:04:13;5.68;;;5.05;;
15693;SDS011;7947;48.834;9.132;2023-08-24T03:07:16;6.55;;;4.72;;
15693;SDS011;7947;48.834;9.132;2023-08-24T03:10:19;4.95;;;4.45;;
15693;SDS011;7947;48.834;9.132;2023-08-24T03:13:23;5.07;;;4.57;;
15693;SDS011;7947;48.834;9.132;2023-08-24T03:16:26;5.85;;;4.57;;
15693;SDS011;7947;48.834;9.132;2023-08-24T03:19:29;5.82;;;4.45;;
15693;SDS011;7947;48.834;9.132;2023-08-24T03:22:32;5.90;;;4.80;;
15693;SDS011;7947;48.834;9.132;2023-08-24T03:25:36;6.07;;;4.40;;
15693;SDS011;7947;48.834;9.132;2023-08-24T03:28:41;7.50;;;4.82;;
15693;SDS011;7947;48.834;9.132;2023-08-24T03:31:44;4.43;;;4.03;;
15693;SDS011;7947;48.834;9.132;2023-08-24T03:34:47;5.40;;;4.63;;
15693;SDS011;7947;48.834;9.132;2023-08-24T03:37:50;6.35;;;4.20;;
15693;SDS011;7947;48.834;9.132;2023-08-24T03:40:59;5.90;;;5.20;;
15693;SDS011;7947;48.834;9.132;2023-08-24T03:44:03;5.57;;;4.70;;
15693;SDS011;7947;48.834;9.132;2023-08-24T03:47:06;5.95;;;4.82;;
15693;SDS011;7947;48.834;9.132;2023-08-24T03:50:10;6.90;;;4.70;;
15693;SDS011;7947;48.834;9.132;2023-08-24T03:53:13;5.10;;;4.28;;
15693;SDS011;7947;48.834;9.132;2023-08-24T03:56:16;6.82;;;5.50;;
15693;SDS011;7947;48.834;9.132;2023-08-24T03:59:21;7.20;;;4.57;;
15693;SDS011;7947;48.834;9.132;2023-08-24T04:02:24;6.18;;;4.88;;
15693;SDS011;7947;48.834;9.132;2023-08-24T04:05:28;6.55;;;5.20;;
15693;SDS011;7947;48.834;9.132;2023-08-24T04:08:31;6.18;;;4.70;;
15693;SDS011;7947;48.834;9.132;2023-08-24T04:11:34;5.50;;;4.90;;
15693;SDS011;7947;48.834;9.132;2023-08-24T04:14:38;5.63;;;4.70;;
15693;SDS011;7947;48.834;9.132;2023-08-24T04:17:41;6.38;;;4.97;;
15693;SDS011;7947;48.834;9.132;2023-08-24T04:20:45;5.53;;;4.95;;
15693;SDS011;7947;48.834;9.132;2023-08-24T04:23:48;6.78;;;5.03;;
15693;SDS011;7947;48.834;9.132;2023-08-24T04:26:51;6.85;;;5.05;;
15693;SDS011;7947;48.834;9.132;2023-08-24T04:29:55;7.63;;;5.53;;
15693;SDS011;7947;48.834;9.132;2023-08-24T04:32:58;5.45;;;4.70;;
15693;SDS011;7947;48.834;9.132;2023-08-24T04:36:02;7.40;;;5.30;;
15693;SDS011;7947;48.834;9.132;2023-08-24T04:39:05;5.95;;;5.35;;
15693;SDS011;7947;48.834;9.132;2023-08-24T04:42:08;6.45;;;5.18;;
15693;SDS011;7947;48.834;9.132;2023-08-24T04:45:12;6.68;;;5.53;;
15693;SDS011;7947;48.834;9.132;2023-08-24T04:48:16;6.20;;;5.55;;
15693;SDS011;7947;48.834;9.132;2023-08-24T04:51:19;6.22;;;5.10;;
15693;SDS011;7947;48.834;9.132;2023-08-24T04:54:22;6.90;;;5.28;;
15693;SDS011;7947;48.834;9.132;2023-08-24T04:57:25;10.15;;;5.10;;
15693;SDS011;7947;48.834;9.132;2023-08-24T05:00:29;5.32;;;4.53;;
15693;SDS011;7947;48.834;9.132;2023-08-24T05:03:34;5.45;;;4.28;;
15693;SDS011;7947;48.834;9.132;2023-08-24T05:06:37;5.97;;;5.00;;
15693;SDS011;7947;48.834;9.132;2023-08-24T05:09:40;5.43;;;4.70;;
15693;SDS011;7947;48.834;9.132;2023-08-24T05:12:43;8.20;;;5.30;;
15693;SDS011;7947;48.834;9.132;2023-08-24T05:15:49;6.00;;;4.95;;
15693;SDS011;7947;48.834;9.132;2023-08-24T05:18:52;5.95;;;5.07;;
15693;SDS011;7947;48.834;9.132;2023-08-24T05:21:55;5.85;;;5.25;;
15693;SDS011;7947;48.834;9.132;2023-08-24T05:24:57;7.38;;;5.65;;
15693;SDS011;7947;48.834;9.132;2023-08-24T05:28:00;9.38;;;5.82;;
15693;SDS011;7947;48.834;9.132;2023-08-24T05:31:06;7.53;;;6.47;;
15693;SDS011;7947;48.834;9.132;2023-08-24T05:34:09;8.70;;;5.78;;
15693;SDS011;7947;48.834;9.132;2023-08-24T05:37:11;7.95;;;5.93;;
15693;SDS011;7947;48.834;9.132;2023-08-24T05:40:14;6.80;;;5.60;;
15693;SDS011;7947;48.834;9.132;2023-08-24T05:43:17;8.07;;;5.75;;
15693;SDS011;7947;48.834;9.132;2023-08-24T05:46:21;5.53;;;4.88;;
15693;SDS011;7947;48.834;9.132;2023-08-24T05:49:24;6.95;;;5.50;;
15693;SDS011;7947;48.834;9.132;2023-08-24T05:52:27;7.40;;;5.28;;
15693;SDS011;7947;48.834;9.132;2023-08-24T05:55:30;7.00;;;5.07;;
15693;SDS011;7947;48.834;9.132;2023-08-24T05:58:33;7.43;;;5.80;;
15693;SDS011;7947;48.834;9.132;2023-08-24T06:01:37;6.40;;;5.72;;
15693;SDS011;7947;48.834;9.132;2023-08-24T06:04:40;6.85;;;5.18;;
15693;SDS011;7947;48.834;9.132;2023-08-24T06:07:43;7.90;;;5.38;;
15693;SDS011;7947;48.834;9.132;2023-08-24T06:10:47;5.68;;;4.93;;
15693;SDS011;7947;48.834;9.132;2023-08-24T06:13:50;5.45;;;4.88;;
15693;SDS011;7947;48.834;9.132;2023-08-24T06:16:56;6.93;;;5.55;;
15693;SDS011;7947;48.834;9.132;2023-08-24T06:19:58;6.50;;;5.65;;
15693;SDS011;7947;48.834;9.132;2023-08-24T06:23:01;6.72;;;5.45;;
15693;SDS011;7947;48.834;9.132;2023-08-24T06:26:04;8.43;;;5.40;;
15693;SDS011;7947;48.834;9.132;2023-08-24T06:29:07;6.90;;;5.10;;
15693;SDS011;7947;48.834;9.132;2023-08-24T06:32:11;9.70;;;5.53;;
15693;SDS011;7947;48.834;9.132;2023-08-24T06:35:14;7.30;;;5.07;;
15693;SDS011;7947;48.834;9.132;2023-08-24T06:38:17;7.10;;;5.07;;
15693;SDS011;7947;48.834;9.132;2023-08-24T06:41:19;6.28;;;4.35;;
15693;SDS011;7947;48.834;9.132;2023-08-24T06:44:22;5.97;;;4.05;;
15693;SDS011;7947;48.834;9.132;2023-08-24T06:47:26;7.60;;;4.40;;
15693;SDS011;7947;48.834;9.132;2023-08-24T06:50:29;5.38;;;4.65;;
15693;SDS011;7947;48.834;9.132;2023-08-24T06:53:32;6.75;;;4.50;;
15693;SDS011;7947;48.834;9.132;2023-08-24T06:56:35;5.57;;;5.07;;
15693;SDS011;7947;48.834;9.132;2023-08-24T06:59:38;6.30;;;5.05;;
15693;SDS011;7947;48.834;9.132;2023-08-24T07:02:42;5.88;;;5.20;;
15693;SDS011;7947;48.834;9.132;2023-08-24T07:05:45;6.32;;;4.90;;
15693;SDS011;7947;48.834;9.132;2023-08-24T07:08:48;7.53;;;5.43;;
15693;SDS011;7947;48.834;9.132;2023-08-24T07:11:51;6.05;;;4.80;;
15693;SDS011;7947;48.834;9.132;2023-08-24T07:14:54;8.40;;;5.22;;
15693;SDS011;7947;48.834;9.132;2023-08-24T07:17:58;7.38;;;4.63;;
15693;SDS011;7947;48.834;9.132;2023-08-24T07:21:00;8.13;;;5.38;;
15693;SDS011;7947;48.834;9.132;2023-08-24T07:24:03;7.95;;;5.43;;
15693;SDS011;7947;48.834;9.132;2023-08-24T07:27:06;5.18;;;4.68;;
15693;SDS011;7947;48.834;9.132;2023-08-24T07:30:10;5.55;;;4.60;;
15693;SDS011;7947;48.834;9.132;2023-08-24T07:33:34;4.35;;;3.92;;
15693;SDS011;7947;48.834;9.132;2023-08-24T07:36:37;4.85;;;4.32;;
15693;SDS011;7947;48.834;9.132;2023-08-24T07:39:40;6.43;;;4.30;;
15693;SDS011;7947;48.834;9.132;2023-08-24T07:42:43;5.38;;;4.53;;
15693;SDS011;7947;48.834;9.132;2023-08-24T07:45:46;5.82;;;4.70;;
15693;SDS011;7947;48.834;9.132;2023-08-24T07:48:50;4.45;;;4.05;;
15693;SDS011;7947;48.834;9.132;2023-08-24T07:51:53;6.88;;;4.20;;
15693;SDS011;7947;48.834;9.132;2023-08-24T07:54:59;5.60;;;4.13;;
15693;SDS011;7947;48.834;9.132;2023-08-24T07:58:05;6.53;;;3.92;;
15693;SDS011;7947;48.834;9.132;2023-08-24T08:01:08;5.07;;;4.07;;
15693;SDS011;7947;48.834;9.132;2023-08-24T08:04:12;4.97;;;4.00;;
15693;SDS011;7947;48.834;9.132;2023-08-24T08:07:15;6.80;;;3.55;;
15693;SDS011;7947;48.834;9.132;2023-08-24T08:10:17;4.47;;;4.07;;
15693;SDS011;7947;48.834;9.132;2023-08-24T08:13:21;5.10;;;3.63;;
15693;SDS011;7947;48.834;9.132;2023-08-24T08:16:24;3.95;;;3.28;;
15693;SDS011;7947;48.834;9.132;2023-08-24T08:19:28;7.85;;;3.70;;
15693;SDS011;7947;48.834;9.132;2023-08-24T08:22:32;4.65;;;3.92;;
15693;SDS011;7947;48.834;9.132;2023-08-24T08:25:37;5.90;;;4.13;;
15693;SDS011;7947;48.834;9.132;2023-08-24T08:28:40;6.22;;;3.85;;
15693;SDS011;7947;48.834;9.132;2023-08-24T08:31:43;4.32;;;3.63;;
15693;SDS011;7947;48.834;9.132;2023-08-24T08:34:47;3.95;;;2.80;;
15693;SDS011;7947;48.834;9.132;2023-08-24T08:37:49;7.20;;;3.55;;
15693;SDS011;7947;48.834;9.132;2023-08-24T08:40:55;3.92;;;3.15;;
15693;SDS011;7947;48.834;9.132;2023-08-24T08:43:59;4.80;;;3.13;;
15693;SDS011;7947;48.834;9.132;2023-08-24T08:47:02;4.32;;;3.00;;
15693;SDS011;7947;48.834;9.132;2023-08-24T08:50:10;3.10;;;2.80;;
15693;SDS011;7947;48.834;9.132;2023-08-24T08:53:13;3.85;;;2.83;;
15693;SDS011;7947;48.834;9.132;2023-08-24T08:56:17;4.30;;;2.80;;
15693;SDS011;7947;48.834;9.132;2023-08-24T08:59:20;3.53;;;2.85;;
15693;SDS011;7947;48.834;9.132;2023-08-24T09:02:25;2.92;;;2.70;;
15693;SDS011;7947;48.834;9.132;2023-08-24T09:05:29;3.20;;;2.90;;
15693;SDS011;7947;48.834;9.132;2023-08-24T09:08:33;3.50;;;2.58;;
15693;SDS011;7947;48.834;9.132;2023-08-24T09:11:36;3.38;;;2.95;;
15693;SDS011;7947;48.834;9.132;2023-08-24T09:14:40;3.20;;;2.90;;
15693;SDS011;7947;48.834;9.132;2023-08-24T09:17:43;2.67;;;2.33;;
15693;SDS011;7947;48.834;9.132;2023-08-24T09:20:48;4.13;;;3.08;;
15693;SDS011;7947;48.834;9.132;2023-08-24T09:23:52;3.65;;;2.42;;
15693;SDS011;7947;48.834;9.132;2023-08-24T09:26:56;2.58;;;2.38;;
15693;SDS011;7947;48.834;9.132;2023-08-24T09:29:58;3.85;;;2.85;;
15693;SDS011;7947;48.834;9.132;2023-08-24T09:33:02;4.03;;;2.35;;
15693;SDS011;7947;48.834;9.132;2023-08-24T09:36:07;5.07;;;2.67;;
15693;SDS011;7947;48.834;9.132;2023-08-24T09:39:10;3.65;;;2.95;;
15693;SDS011;7947;48.834;9.132;2023-08-24T09:42:13;5.03;;;3.10;;
15693;SDS011;7947;48.834;9.132;2023-08-24T09:45:16;4.13;;;2.72;;
15693;SDS011;7947;48.834;9.132;2023-08-24T09:48:19;3.63;;;2.72;;
15693;SDS011;7947;48.834;9.132;2023-08-24T09:51:24;3.03;;;2.40;;
15693;SDS011;7947;48.834;9.132;2023-08-24T09:54:28;3.22;;;2.92;;
15693;SDS011;7947;48.834;9.132;2023-08-24T09:57:36;3.85;;;3.05;;
15693;SDS011;7947;48.834;9.132;2023-08-24T10:00:40;3.92;;;2.50;;
15693;SDS011;7947;48.834;9.132;2023-08-24T10:03:44;5.93;;;2.70;;
15693;SDS011;7947;48.834;9.132;2023-08-24T10:06:51;3.78;;;2.55;;
15693;SDS011;7947;48.834;9.132;2023-08-24T10:09:58;3.40;;;3.03;;
15693;SDS011;7947;48.834;9.132;2023-08-24T10:13:06;4.50;;;3.13;;
15693;SDS011;7947;48.834;9.132;2023-08-24T10:16:13;4.40;;;3.38;;
15693;SDS011;7947;48.834;9.132;2023-08-24T10:19:19;6.20;;;3.45;;
15693;SDS011;7947;48.834;9.132;2023-08-24T10:22:25;3.38;;;3.08;;
15693;SDS011;7947;48.834;9.132;2023-08-24T10:25:27;3.20;;;2.95;;
15693;SDS011;7947;48.834;9.132;2023-08-24T10:28:31;5.97;;;3.10;;
15693;SDS011;7947;48.834;9.132;2023-08-24T10:31:35;4.25;;;3.20;;
15693;SDS011;7947;48.834;9.132;2023-08-24T10:34:39;3.88;;;2.80;;
15693;SDS011;7947;48.834;9.132;2023-08-24T10:37:45;4.28;;;3.22;;
15693;SDS011;7947;48.834;9.132;2023-08-24T10:40:49;6.75;;;3.38;;
15693;SDS011;7947;48.834;9.132;2023-08-24T10:43:53;3.80;;;3.30;;
15693;SDS011;7947;48.834;9.132;2023-08-24T10:47:07;4.10;;;2.75;;
15693;SDS011;7947;48.834;9.132;2023-08-24T10:50:14;3.45;;;3.05;;
15693;SDS011;7947;48.834;9.132;2023-08-24T10:56:43;3.55;;;3.20;;
15693;SDS011;7947;48.834;9.132;2023-08-24T10:59:59;3.70;;;3.35;;
15693;SDS011;7947;48.834;9.132;2023-08-24T11:03:07;3.55;;;3.25;;
15693;SDS011;7947;48.834;9.132;2023-08-24T11:06:17;4.45;;;3.40;;
15693;SDS011;7947;48.834;9.132;2023-08-24T11:09:22;4.00;;;3.22;;
15693;SDS011;7947;48.834;9.132;2023-08-24T11:12:25;3.67;;;3.33;;
15693;SDS011;7947;48.834;9.132;2023-08-24T11:15:29;4.72;;;3.58;;
15693;SDS011;7947;48.834;9.132;2023-08-24T11:18:39;4.00;;;3.47;;
15693;SDS011;7947;48.834;9.132;2023-08-24T11:21:42;4.45;;;3.38;;
15693;SDS011;7947;48.834;9.132;2023-08-24T11:24:47;3.90;;;3.50;;
15693;SDS011;7947;48.834;9.132;2023-08-24T11:27:50;4.35;;;3.40;;
15693;SDS011;7947;48.834;9.132;2023-08-24T11:30:53;4.20;;;3.80;;
15693;SDS011;7947;48.834;9.132;2023-08-24T11:33:56;6.47;;;4.43;;
15693;SDS011;7947;48.834;9.132;2023-08-24T11:36:59;5.03;;;3.80;;
15693;SDS011;7947;48.834;9.132;2023-08-24T11:40:05;4.72;;;3.50;;
15693;SDS011;7947;48.834;9.132;2023-08-24T11:43:11;4.90;;;3.72;;
15693;SDS011;7947;48.834;9.132;2023-08-24T11:46:15;5.20;;;3.88;;
15693;SDS011;7947;48.834;9.132;2023-08-24T11:49:18;5.88;;;3.83;;
15693;SDS011;7947;48.834;9.132;2023-08-24T11:52:21;4.95;;;3.33;;
15693;SDS011;7947;48.834;9.132;2023-08-24T11:55:25;4.40;;;3.90;;
15693;SDS011;7947;48.834;9.132;2023-08-24T11:58:28;4.00;;;3.60;;
15693;SDS011;7947;48.834;9.132;2023-08-24T12:01:31;6.70;;;4.05;;
15693;SDS011;7947;48.834;9.132;2023-08-24T12:04:38;4.70;;;4.15;;
15693;SDS011;7947;48.834;9.132;2023-08-24T12:07:41;5.90;;;3.80;;
15693;SDS011;7947;48.834;9.132;2023-08-24T12:10:48;5.40;;;4.55;;
15693;SDS011;7947;48.834;9.132;2023-08-24T12:13:52;4.95;;;3.60;;
15693;SDS011;7947;48.834;9.132;2023-08-24T12:16:56;4.13;;;3.72;;
15693;SDS011;7947;48.834;9.132;2023-08-24T12:19:59;4.70;;;4.20;;
15693;SDS011;7947;48.834;9.132;2023-08-24T12:23:07;5.15;;;3.78;;
15693;SDS011;7947;48.834;9.132;2023-08-24T12:26:19;4.70;;;4.25;;
15693;SDS011;7947;48.834;9.132;2023-08-24T12:29:23;4.45;;;3.70;;
15693;SDS011;7947;48.834;9.132;2023-08-24T12:32:31;6.43;;;4.05;;
15693;SDS011;7947;48.834;9.132;2023-08-24T12:35:44;5.70;;;3.60;;
15693;SDS011;7947;48.834;9.132;2023-08-24T12:38:47;7.55;;;4.13;;
15693;SDS011;7947;48.834;9.132;2023-08-24T12:41:51;4.10;;;3.67;;
15693;SDS011;7947;48.834;9.132;2023-08-24T12:44:55;4.72;;;4.03;;
15693;SDS011;7947;48.834;9.132;2023-08-24T12:47:58;4.97;;;3.85;;
15693;SDS011;7947;48.834;9.132;2023-08-24T12:51:00;8.07;;;4.00;;
15693;SDS011;7947;48.834;9.132;2023-08-24T12:54:03;4.13;;;3.72;;
15693;SDS011;7947;48.834;9.132;2023-08-24T12:57:11;4.35;;;3.45;;
15693;SDS011;7947;48.834;9.132;2023-08-24T13:00:14;7.70;;;4.20;;
15693;SDS011;7947;48.834;9.132;2023-08-24T13:03:17;4.68;;;3.45;;
15693;SDS011;7947;48.834;9.132;2023-08-24T13:06:20;5.57;;;3.58;;
15693;SDS011;7947;48.834;9.132;2023-08-24T13:09:25;6.43;;;4.25;;
15693;SDS011;7947;48.834;9.132;2023-08-24T13:12:29;6.90;;;3.65;;
15693;SDS011;7947;48.834;9.132;2023-08-24T13:15:32;7.32;;;3.60;;
15693;SDS011;7947;48.834;9.132;2023-08-24T13:18:35;4.45;;;3.92;;
15693;SDS011;7947;48.834;9.132;2023-08-24T13:21:38;5.90;;;3.53;;
15693;SDS011;7947;48.834;9.132;2023-08-24T13:24:41;4.22;;;3.13;;
15693;SDS011;7947;48.834;9.132;2023-08-24T13:27:46;8.02;;;3.50;;
15693;SDS011;7947;48.834;9.132;2023-08-24T13:30:50;6.13;;;3.58;;
15693;SDS011;7947;48.834;9.132;2023-08-24T13:33:53;5.70;;;3.80;;
15693;SDS011;7947;48.834;9.132;2023-08-24T13:36:55;6.75;;;4.03;;
15693;SDS011;7947;48.834;9.132;2023-08-24T13:39:58;5.72;;;4.45;;
15693;SDS011;7947;48.834;9.132;2023-08-24T13:43:03;4.95;;;3.55;;
15693;SDS011;7947;48.834;9.132;2023-08-24T13:46:06;6.50;;;3.47;;
15693;SDS011;7947;48.834;9.132;2023-08-24T13:49:09;5.15;;;3.78;;
15693;SDS011;7947;48.834;9.132;2023-08-24T13:52:16;6.43;;;3.97;;
15693;SDS011;7947;48.834;9.132;2023-08-24T13:55:20;6.43;;;3.60;;
15693;SDS011;7947;48.834;9.132;2023-08-24T13:58:24;5.18;;;3.95;;
15693;SDS011;7947;48.834;9.132;2023-08-24T14:01:27;5.47;;;4.13;;
15693;SDS011;7947;48.834;9.132;2023-08-24T14:04:30;5.13;;;3.97;;
15693;SDS011;7947;48.834;9.132;2023-08-24T14:07:33;6.90;;;3.97;;
15693;SDS011;7947;48.834;9.132;2023-08-24T14:10:36;7.45;;;3.80;;
15693;SDS011;7947;48.834;9.132;2023-08-24T14:13:41;8.70;;;3.88;;
15693;SDS011;7947;48.834;9.132;2023-08-24T14:16:43;6.45;;;3.60;;
15693;SDS011;7947;48.834;9.132;2023-08-24T14:19:49;4.53;;;3.70;;
15693;SDS011;7947;48.834;9.132;2023-08-24T14:22:52;6.82;;;4.20;;
15693;SDS011;7947;48.834;9.132;2023-08-24T14:25:54;5.47;;;3.65;;
15693;SDS011;7947;48.834;9.132;2023-08-24T14:28:59;4.80;;;3.10;;
15693;SDS011;7947;48.834;9.132;2023-08-24T14:32:02;4.47;;;3.42;;
15693;SDS011;7947;48.834;9.132;2023-08-24T14:35:05;4.93;;;3.47;;
15693;SDS011;7947;48.834;9.132;2023-08-24T14:38:08;3.40;;;2.88;;
15693;SDS011;7947;48.834;9.132;2023-08-24T14:41:11;7.63;;;3.45;;
15693;SDS011;7947;48.834;9.132;2023-08-24T14:44:16;4.75;;;3.20;;
15693;SDS011;7947;48.834;9.132;2023-08-24T14:47:18;5.82;;;3.13;;
15693;SDS011;7947;48.834;9.132;2023-08-24T14:50:22;5.18;;;3.58;;
15693;SDS011;7947;48.834;9.132;2023-08-24T14:53:25;5.85;;;2.97;;
15693;SDS011;7947;48.834;9.132;2023-08-24T14:56:29;13.43;;;5.55;;
15693;SDS011;7947;48.834;9.132;2023-08-24T14:59:33;7.00;;;3.53;;
15693;SDS011;7947;48.834;9.132;2023-08-24T15:02:37;9.13;;;3.03;;
15693;SDS011;7947;48.834;9.132;2023-08-24T15:05:43;3.55;;;2.58;;
15693;SDS011;7947;48.834;9.132;2023-08-24T15:08:47;5.45;;;2.05;;
15693;SDS011;7947;48.834;9.132;2023-08-24T15:11:50;4.22;;;2.15;;
15693;SDS011;7947;48.834;9.132;2023-08-24T15:14:57;3.85;;;2.33;;
15693;SDS011;7947;48.834;9.132;2023-08-24T15:18:02;2.60;;;2.17;;
15693;SDS011;7947;48.834;9.132;2023-08-24T15:21:05;3.00;;;2.65;;
15693;SDS011;7947;48.834;9.132;2023-08-24T15:24:09;5.47;;;2.72;;
15693;SDS011;7947;48.834;9.132;2023-08-24T15:27:11;3.78;;;1.98;;
15693;SDS011;7947;48.834;9.132;2023-08-24T15:30:16;3.90;;;2.30;;
15693;SDS011;7947;48.834;9.132;2023-08-24T15:33:19;2.85;;;2.08;;
15693;SDS011;7947;48.834;9.132;2023-08-24T15:36:22;2.33;;;2.03;;
15693;SDS011;7947;48.834;9.132;2023-08-24T15:39:25;6.00;;;1.95;;
15693;SDS011;7947;48.834;9.132;2023-08-24T15:42:28;2.58;;;1.90;;
15693;SDS011;7947;48.834;9.132;2023-08-24T15:45:32;2.03;;;1.55;;
15693;SDS011;7947;48.834;9.132;2023-08-24T15:48:35;2.40;;;1.60;;
15693;SDS011;7947;48.834;9.132;2023-08-24T15:51:39;3.83;;;1.63;;
15693;SDS011;7947;48.834;9.132;2023-08-24T15:54:42;2.53;;;1.70;;
15693;SDS011;7947;48.834;9.132;2023-08-24T15:57:44;3.63;;;1.63;;
15693;SDS011;7947;48.834;9.132;2023-08-24T16:00:51;2.53;;;1.83;;
15693;SDS011;7947;48.834;9.132;2023-08-24T16:03:54;2.00;;;1.58;;
15693;SDS011;7947;48.834;9.132;2023-08-24T16:06:57;2.67;;;1.42;;
15693;SDS011;7947;48.834;9.132;2023-08-24T16:10:00;2.35;;;1.40;;
15693;SDS011;7947;48.834;9.132;2023-08-24T16:13:04;1.98;;;1.25;;
15693;SDS011;7947;48.834;9.132;2023-08-24T16:16:08;1.75;;;1.30;;
15693;SDS011;7947;48.834;9.132;2023-08-24T16:19:10;2.42;;;1.25;;
15693;SDS011;7947;48.834;9.132;2023-08-24T16:22:13;1.90;;;1.40;;
15693;SDS011;7947;48.834;9.132;2023-08-24T16:25:16;3.78;;;1.25;;
15693;SDS011;7947;48.834;9.132;2023-08-24T16:28:19;2.13;;;1.65;;
15693;SDS011;7947;48.834;9.132;2023-08-24T16:31:23;4.68;;;1.92;;
15693;SDS011;7947;48.834;9.132;2023-08-24T16:34:26;5.28;;;1.65;;
15693;SDS011;7947;48.834;9.132;2023-08-24T16:37:29;3.72;;;2.03;;
15693;SDS011;7947;48.834;9.132;2023-08-24T16:40:34;4.25;;;1.88;;
15693;SDS011;7947;48.834;9.132;2023-08-24T16:43:37;2.90;;;2.20;;
15693;SDS011;7947;48.834;9.132;2023-08-24T16:46:41;3.72;;;2.10;;
15693;SDS011;7947;48.834;9.132;2023-08-24T16:49:44;2.25;;;1.85;;
15693;SDS011;7947;48.834;9.132;2023-08-24T16:52:47;2.95;;;2.20;;
15693;SDS011;7947;48.834;9.132;2023-08-24T16:55:50;3.67;;;2.22;;
15693;SDS011;7947;48.834;9.132;2023-08-24T16:58:53;4.75;;;2.40;;
15693;SDS011;7947;48.834;9.132;2023-08-24T17:01:57;2.90;;;2.03;;
15693;SDS011;7947;48.834;9.132;2023-08-24T17:05:01;3.35;;;2.08;;
15693;SDS011;7947;48.834;9.132;2023-08-24T17:08:05;3.40;;;2.00;;
15693;SDS011;7947;48.834;9.132;2023-08-24T17:11:09;2.92;;;2.60;;
15693;SDS011;7947;48.834;9.132;2023-08-24T17:14:11;2.58;;;2.17;;
15693;SDS011;7947;48.834;9.132;2023-08-24T17:17:16;6.28;;;2.05;;
15693;SDS011;7947;48.834;9.132;2023-08-24T17:20:19;2.80;;;2.08;;
15693;SDS011;7947;48.834;9.132;2023-08-24T17:23:22;5.57;;;2.45;;
15693;SDS011;7947;48.834;9.132;2023-08-24T17:26:25;2.42;;;1.95;;
15693;SDS011;7947;48.834;9.132;2023-08-24T17:29:28;3.63;;;2.63;;
15693;SDS011;7947;48.834;9.132;2023-08-24T17:32:32;3.30;;;2.20;;
15693;SDS011;7947;48.834;9.132;2023-08-24T17:35:35;2.45;;;2.00;;
15693;SDS011;7947;48.834;9.132;2023-08-24T17:38:38;2.60;;;2.10;;
15693;SDS011;7947;48.834;9.132;2023-08-24T17:41:41;2.45;;;1.80;;
15693;SDS011;7947;48.834;9.132;2023-08-24T17:44:44;2.53;;;2.33;;
15693;SDS011;7947;48.834;9.132;2023-08-24T17:47:48;3.00;;;2.22;;
15693;SDS011;7947;48.834;9.132;2023-08-24T17:50:52;4.22;;;2.33;;
15693;SDS011;7947;48.834;9.132;2023-08-24T17:53:56;4.07;;;2.22;;
15693;SDS011;7947;48.834;9.132;2023-08-24T17:57:00;2.63;;;1.88;;
15693;SDS011;7947;48.834;9.132;2023-08-24T18:00:04;5.15;;;2.20;;
15693;SDS011;7947;48.834;9.132;2023-08-24T18:03:09;2.70;;;2.20;;
15693;SDS011;7947;48.834;9.132;2023-08-24T18:06:12;4.80;;;2.15;;
15693;SDS011;7947;48.834;9.132;2023-08-24T18:09:15;4.53;;;2.50;;
15693;SDS011;7947;48.834;9.132;2023-08-24T18:12:18;3.15;;;2.30;;
15693;SDS011;7947;48.834;9.132;2023-08-24T18:15:20;3.72;;;2.72;;
15693;SDS011;7947;48.834;9.132;2023-08-24T18:18:35;4.80;;;2.72;;
15693;SDS011;7947;48.834;9.132;2023-08-24T18:21:40;4.32;;;2.70;;
15693;SDS011;7947;48.834;9.132;2023-08-24T18:24:43;4.18;;;2.65;;
15693;SDS011;7947;48.834;9.132;2023-08-24T18:27:46;3.78;;;2.80;;
15693;SDS011;7947;48.834;9.132;2023-08-24T18:30:49;2.97;;;2.67;;
15693;SDS011;7947;48.834;9.132;2023-08-24T18:33:53;4.05;;;3.30;;
15693;SDS011;7947;48.834;9.132;2023-08-24T18:36:56;5.15;;;3.83;;
15693;SDS011;7947;48.834;9.132;2023-08-24T18:39:59;3.85;;;3.28;;
15693;SDS011;7947;48.834;9.132;2023-08-24T18:43:02;6.85;;;4.63;;
15693;SDS011;7947;48.834;9.132;2023-08-24T18:46:05;5.72;;;3.90;;